Terminal Aerodrome Forecast
Issued by NWS

Home | Current Version | Previous Version | Graphics & Text | Print | Product List | Glossary On
Versions: 1 2 3 4 5 6 7 8 9 10 11 12 13 14 15 16 17 18 19 20 21 22
972
FTUS43 KTOP 211136
TAFMHK
TAF
KMHK 211136Z 2112/2212 23006KT P6SM SCT100
     FM211900 15005KT P6SM SCT150
     FM212300 06004KT P6SM BKN050
     FM220600 36005KT P6SM OVC050=

USA.gov is the U.S. government's official web portal to all federal, state and local government web resources and services.